Foxton, Colorado
Current Conditions -  °F | °C
As of 11:53 AM on Tuesday 21 Oct 2014 (Local Time) from KAPA Reporting Station
Few Clouds Few Clouds  
Wind Chill: 71°   Ceiling: Unl
Heat Index: 71°   Visibility: 10mi
Dew Point: 34°   Wind: 9mph
Humidity: 26%   Direction: 260°W
Pressure: 30.02"   Gusts: NA
Location:  39.4975°N, 105.289°W
Report Text: KAPA 211753Z 26008KT 10SM FEW150 FEW220 22/01 A3002 RMK AO2 SLP112 T02170011 10217 20083 58014
Loading
Personal Weather Stations






























Interactive Weather Map
Tropical Storm Tracking
New forecast layout! Learn more

10-Day Weather Forecast

Advertisements
Track Severe Weather on mobile